createdAt,value
2022-10-17T00:00:51.267Z,100.00
2022-10-17T00:03:17.504Z,100.00
2022-10-17T00:05:47.624Z,100.00
2022-10-17T00:08:15.396Z,100.00
2022-10-17T00:10:42.251Z,100.00
2022-10-17T00:13:09.260Z,100.00
2022-10-17T00:15:35.122Z,100.00
2022-10-17T00:18:01.401Z,100.00
2022-10-17T00:20:29.665Z,100.00
2022-10-17T00:22:56.496Z,100.00
2022-10-17T00:25:22.460Z,100.00
2022-10-17T00:27:48.214Z,100.00
2022-10-17T00:30:16.019Z,100.00
2022-10-17T00:32:41.846Z,100.00
2022-10-17T00:35:08.437Z,100.00
2022-10-17T00:37:34.720Z,100.00
2022-10-17T00:40:00.606Z,100.00
2022-10-17T00:42:27.705Z,100.00
2022-10-17T00:45:16.542Z,100.00
2022-10-17T00:47:47.576Z,100.00
2022-10-17T00:50:14.561Z,100.00
2022-10-17T00:52:41.100Z,100.00
2022-10-17T00:55:29.573Z,100.00
2022-10-17T00:57:57.281Z,100.00
2022-10-17T01:00:24.180Z,100.00
2022-10-17T01:02:50.057Z,100.00
2022-10-17T01:05:18.038Z,100.00
2022-10-17T01:07:46.426Z,100.00
2022-10-17T01:10:14.195Z,100.00
2022-10-17T01:13:00.526Z,100.00
2022-10-17T01:15:52.338Z,100.00
2022-10-17T01:18:36.268Z,100.00
2022-10-17T01:21:28.258Z,100.00
2022-10-17T01:24:17.826Z,100.00
2022-10-17T01:27:11.106Z,100.00
2022-10-17T01:29:52.002Z,100.00
2022-10-17T01:32:49.342Z,100.00
2022-10-17T01:35:15.011Z,100.00
2022-10-17T01:37:47.632Z,100.00
2022-10-17T01:40:41.505Z,100.00
2022-10-17T01:43:23.792Z,100.00
2022-10-17T01:45:56.467Z,100.00
2022-10-17T01:48:25.861Z,100.00
2022-10-17T01:50:57.868Z,100.00
2022-10-17T01:53:31.086Z,100.00
2022-10-17T01:56:00.394Z,100.00
2022-10-17T01:58:33.310Z,100.00
2022-10-17T02:01:02.679Z,100.00
2022-10-17T02:03:31.570Z,100.00
2022-10-17T02:05:57.527Z,100.00
2022-10-17T02:08:41.927Z,100.00
2022-10-17T02:11:15.810Z,100.00
2022-10-17T02:14:03.022Z,100.00
2022-10-17T02:16:51.861Z,100.00
2022-10-17T02:19:42.551Z,100.00
2022-10-17T02:22:24.734Z,100.00
2022-10-17T02:24:59.390Z,100.00
2022-10-17T02:27:47.001Z,100.00
2022-10-17T02:30:43.820Z,100.00
2022-10-17T02:33:44.171Z,100.00
2022-10-17T02:36:19.784Z,100.00
2022-10-17T02:38:46.286Z,100.00
2022-10-17T02:41:16.351Z,100.00
2022-10-17T02:43:44.701Z,100.00
2022-10-17T02:46:19.981Z,100.00
2022-10-17T02:49:00.429Z,100.00
2022-10-17T02:51:36.395Z,100.00
2022-10-17T02:54:36.458Z,100.00
2022-10-17T02:57:09.961Z,100.00
2022-10-17T02:59:36.907Z,100.00
2022-10-17T03:02:06.475Z,100.00
2022-10-17T03:04:33.083Z,100.00
2022-10-17T03:06:59.161Z,100.00
2022-10-17T03:09:25.050Z,100.00
2022-10-17T03:11:50.985Z,100.00
2022-10-17T03:14:16.793Z,100.00
2022-10-17T03:16:43.104Z,100.00
2022-10-17T03:19:08.910Z,100.00
2022-10-17T03:21:36.907Z,100.00
2022-10-17T03:24:03.635Z,100.00
2022-10-17T03:26:29.571Z,100.00
2022-10-17T03:28:55.748Z,100.00
2022-10-17T03:31:21.832Z,100.00
2022-10-17T03:33:47.595Z,100.00
2022-10-17T03:36:16.394Z,100.00
2022-10-17T03:38:42.911Z,100.00
2022-10-17T03:41:09.502Z,100.00
2022-10-17T03:43:36.076Z,100.00
2022-10-17T03:46:02.925Z,100.00
2022-10-17T03:48:30.090Z,100.00
2022-10-17T03:51:07.449Z,100.00
2022-10-17T03:53:33.700Z,100.00
2022-10-17T03:56:16.892Z,100.00
2022-10-17T03:58:43.472Z,100.00
2022-10-17T04:01:11.786Z,100.00
2022-10-17T04:03:38.303Z,100.00
2022-10-17T04:06:04.947Z,100.00
2022-10-17T04:08:31.136Z,100.00
2022-10-17T04:11:05.606Z,100.00
2022-10-17T04:13:32.576Z,100.00
2022-10-17T04:16:06.654Z,100.00
2022-10-17T04:18:33.196Z,100.00
2022-10-17T04:21:05.619Z,100.00
2022-10-17T04:23:31.830Z,100.00
2022-10-17T04:25:59.342Z,100.00
2022-10-17T04:28:26.631Z,100.00
2022-10-17T04:31:00.585Z,100.00
2022-10-17T04:34:27.798Z,100.00
2022-10-17T04:36:53.617Z,100.00
2022-10-17T04:39:19.536Z,100.00
2022-10-17T04:41:45.419Z,100.00
2022-10-17T04:44:11.198Z,100.00
2022-10-17T04:46:37.006Z,100.00
2022-10-17T04:49:02.849Z,100.00
2022-10-17T04:51:58.074Z,100.00
2022-10-17T04:55:13.499Z,100.00
2022-10-17T04:58:53.861Z,100.00
2022-10-17T05:02:29.590Z,100.00
2022-10-17T05:04:55.490Z,100.00
2022-10-17T05:07:21.354Z,100.00
2022-10-17T05:09:49.820Z,100.00
2022-10-17T05:12:31.224Z,100.00
2022-10-17T05:14:57.219Z,100.00
2022-10-17T05:17:23.031Z,100.00
2022-10-17T05:19:48.888Z,100.00
2022-10-17T05:22:14.748Z,100.00
2022-10-17T05:25:14.652Z,100.00
2022-10-17T05:48:27.864Z,100.00
2022-10-17T05:51:07.182Z,100.00
2022-10-17T05:53:35.064Z,100.00
2022-10-17T05:56:03.146Z,100.00
2022-10-17T05:58:49.253Z,100.00
2022-10-17T06:01:15.590Z,100.00
2022-10-17T06:03:41.576Z,100.00
2022-10-17T06:06:12.283Z,100.00
2022-10-17T06:08:39.055Z,100.00
2022-10-17T06:11:07.682Z,100.00
2022-10-17T06:13:36.018Z,100.00
2022-10-17T06:16:02.002Z,100.00
2022-10-17T06:18:28.459Z,100.00
2022-10-17T06:20:54.346Z,100.00
2022-10-17T06:23:20.165Z,100.00
2022-10-17T06:25:45.973Z,100.00
2022-10-17T06:28:12.125Z,100.00
2022-10-17T06:30:39.655Z,100.00
2022-10-17T06:33:05.456Z,100.00
2022-10-17T06:35:31.533Z,100.00
2022-10-17T06:37:57.320Z,100.00
2022-10-17T06:40:23.196Z,100.00
2022-10-17T06:42:49.058Z,100.00
2022-10-17T06:45:14.915Z,100.00
2022-10-17T06:47:40.763Z,100.00
2022-10-17T06:50:08.988Z,100.00
2022-10-17T06:52:34.809Z,100.00
2022-10-17T06:55:00.743Z,100.00
2022-10-17T06:57:27.490Z,100.00
2022-10-17T06:59:54.694Z,100.00
2022-10-17T07:02:20.600Z,100.00
2022-10-17T07:04:47.080Z,100.00
2022-10-17T07:07:12.874Z,100.00
2022-10-17T07:09:38.726Z,100.00
2022-10-17T07:12:07.341Z,100.00
2022-10-17T07:14:34.477Z,100.00
2022-10-17T07:17:01.305Z,100.00
2022-10-17T07:19:27.162Z,100.00
2022-10-17T07:21:53.624Z,100.00
2022-10-17T07:24:19.418Z,100.00
2022-10-17T07:26:45.280Z,100.00
2022-10-17T07:29:11.393Z,100.00
2022-10-17T07:31:37.290Z,100.00
2022-10-17T07:34:03.467Z,100.00
2022-10-17T07:36:29.275Z,100.00
2022-10-17T07:38:55.294Z,100.00
2022-10-17T07:41:21.923Z,100.00
2022-10-17T07:43:48.224Z,100.00
2022-10-17T07:46:14.145Z,100.00
2022-10-17T07:48:40.860Z,100.00
2022-10-17T07:51:08.554Z,100.00
2022-10-17T07:53:38.461Z,100.00
2022-10-17T07:56:08.754Z,100.00
2022-10-17T07:58:35.754Z,100.00
2022-10-17T08:01:03.943Z,100.00
2022-10-17T08:03:29.942Z,100.00
2022-10-17T08:06:00.286Z,100.00
2022-10-17T08:08:27.011Z,100.00
2022-10-17T08:10:54.590Z,100.00
2022-10-17T08:13:21.866Z,100.00
2022-10-17T08:15:48.101Z,100.00
2022-10-17T08:18:14.789Z,100.00
2022-10-17T08:20:41.495Z,100.00
2022-10-17T08:23:07.476Z,100.00
2022-10-17T08:25:33.358Z,100.00
2022-10-17T08:27:59.302Z,100.00
2022-10-17T08:30:25.194Z,100.00
2022-10-17T08:32:50.993Z,100.00
2022-10-17T08:35:17.023Z,100.00
2022-10-17T08:37:42.946Z,100.00
2022-10-17T08:40:24.713Z,100.00
2022-10-17T08:43:10.287Z,100.00
2022-10-17T08:45:46.450Z,100.00
2022-10-17T08:48:17.329Z,100.00
2022-10-17T08:50:53.234Z,100.00
2022-10-17T08:53:40.445Z,100.00
2022-10-17T08:56:24.856Z,100.00
2022-10-17T08:59:10.083Z,100.00
2022-10-17T09:01:38.909Z,100.00
2022-10-17T09:04:29.845Z,100.00
2022-10-17T09:07:20.608Z,100.00
2022-10-17T09:10:16.477Z,100.00
2022-10-17T09:13:10.606Z,100.00
2022-10-17T09:16:03.085Z,100.00
2022-10-17T09:18:40.368Z,100.00
2022-10-17T09:21:13.655Z,100.00
2022-10-17T09:23:56.015Z,100.00
2022-10-17T09:26:30.029Z,100.00
2022-10-17T09:28:58.672Z,100.00
2022-10-17T09:31:30.153Z,100.00
2022-10-17T09:33:59.863Z,100.00
2022-10-17T09:36:29.421Z,100.00
2022-10-17T09:38:58.387Z,98.09
2022-10-17T09:41:50.761Z,97.03
2022-10-17T09:44:18.704Z,89.62
2022-10-17T09:47:12.372Z,82.41
2022-10-17T09:49:40.853Z,79.33
2022-10-17T09:52:29.883Z,75.34
2022-10-17T09:55:04.271Z,70.16
2022-10-17T09:57:51.898Z,67.59
2022-10-17T10:00:41.480Z,70.10
2022-10-17T10:03:20.500Z,64.45
2022-10-17T10:06:04.708Z,60.23
2022-10-17T10:08:35.975Z,60.83
2022-10-17T10:11:07.912Z,57.92
2022-10-17T10:13:35.382Z,55.60
2022-10-17T10:16:18.168Z,50.91
2022-10-17T10:18:47.424Z,49.30
2022-10-17T10:21:21.501Z,50.36
2022-10-17T10:24:04.459Z,57.37
2022-10-17T10:26:38.995Z,58.73
2022-10-17T10:29:25.363Z,62.36
2022-10-17T10:31:52.608Z,65.26
2022-10-17T10:34:28.336Z,69.94
2022-10-17T10:36:58.829Z,74.57
2022-10-17T10:39:32.706Z,74.53
2022-10-17T10:42:00.814Z,75.85
2022-10-17T10:44:29.904Z,70.97
2022-10-17T10:47:16.758Z,62.07
2022-10-17T10:49:43.732Z,54.65
2022-10-17T10:52:33.611Z,50.16
2022-10-17T10:55:15.412Z,42.75
2022-10-17T10:57:44.250Z,46.58
2022-10-17T11:00:22.377Z,52.59
2022-10-17T11:02:59.822Z,61.54
2022-10-17T11:05:45.718Z,69.89
2022-10-17T11:08:16.791Z,77.53
2022-10-17T11:11:23.117Z,83.18
2022-10-17T11:13:59.869Z,83.90
2022-10-17T11:17:06.212Z,88.41
2022-10-17T11:19:40.189Z,91.50
2022-10-17T11:22:13.878Z,92.83
2022-10-17T11:24:58.989Z,91.71
2022-10-17T11:27:29.232Z,92.63
2022-10-17T11:29:56.009Z,92.21
2022-10-17T11:32:35.776Z,90.87
2022-10-17T11:35:16.079Z,91.10
2022-10-17T11:37:50.014Z,90.93
2022-10-17T11:40:29.191Z,91.67
2022-10-17T11:43:01.713Z,91.66
2022-10-17T11:45:33.270Z,92.14
2022-10-17T11:48:11.816Z,94.59
2022-10-17T11:54:04.162Z,94.96
2022-10-17T11:56:57.517Z,95.11
2022-10-17T11:59:42.200Z,93.27
2022-10-17T12:02:14.984Z,95.30
2022-10-17T12:04:49.135Z,94.66
2022-10-17T12:07:37.554Z,94.80
2022-10-17T12:10:31.138Z,96.00
2022-10-17T12:12:57.285Z,96.29
2022-10-17T12:15:23.125Z,94.73
2022-10-17T12:18:03.375Z,95.80
2022-10-17T12:20:30.455Z,96.79
2022-10-17T12:23:11.210Z,97.83
2022-10-17T12:26:01.213Z,97.73
2022-10-17T12:28:47.522Z,98.57
2022-10-17T12:31:16.689Z,98.42
2022-10-17T12:33:45.662Z,97.22
2022-10-17T12:36:26.564Z,96.09
2022-10-17T12:39:01.673Z,96.56
2022-10-17T12:41:40.156Z,97.86
2022-10-17T12:44:20.870Z,96.76
2022-10-17T12:46:48.959Z,95.66
2022-10-17T12:49:36.610Z,97.68
2022-10-17T12:52:24.936Z,93.50
2022-10-17T12:55:07.134Z,94.10
2022-10-17T12:58:14.976Z,93.01
2022-10-17T13:01:05.136Z,93.20
2022-10-17T13:03:41.142Z,93.02
2022-10-17T13:06:07.146Z,93.25
2022-10-17T13:08:38.286Z,92.16
2022-10-17T13:11:05.930Z,91.30
2022-10-17T13:13:44.946Z,92.46
2022-10-17T13:16:32.360Z,92.60
2022-10-17T13:19:00.206Z,91.74
2022-10-17T13:21:26.798Z,91.52
2022-10-17T13:23:53.768Z,91.43
2022-10-17T13:26:27.977Z,91.48
2022-10-17T13:29:04.769Z,93.02
2022-10-17T13:31:36.484Z,93.45
2022-10-17T13:34:05.141Z,93.69
2022-10-17T13:36:33.247Z,93.85
2022-10-17T13:39:04.702Z,96.53
2022-10-17T13:41:36.152Z,97.81
2022-10-17T13:44:06.914Z,97.72
2022-10-17T13:46:38.308Z,98.57
2022-10-17T13:49:17.229Z,100.00
2022-10-17T13:51:49.208Z,100.00
2022-10-17T13:54:42.352Z,100.00
2022-10-17T13:57:27.148Z,100.00
2022-10-17T13:59:57.485Z,100.00
2022-10-17T14:02:26.865Z,100.00
2022-10-17T14:05:16.789Z,100.00
2022-10-17T14:08:10.109Z,100.00
2022-10-17T14:10:34.180Z,100.00
2022-10-17T14:13:03.555Z,100.00
2022-10-17T14:15:31.438Z,100.00
2022-10-17T14:18:08.035Z,100.00
2022-10-17T14:23:32.689Z,100.00
2022-10-17T14:26:22.137Z,100.00
2022-10-17T14:29:05.460Z,100.00
2022-10-17T14:31:37.450Z,100.00
2022-10-17T14:34:04.235Z,100.00
2022-10-17T14:36:34.142Z,100.00
2022-10-17T14:39:01.758Z,100.00
2022-10-17T14:41:47.300Z,100.00
2022-10-17T14:44:25.104Z,100.00
2022-10-17T14:46:54.915Z,100.00
2022-10-17T14:49:34.196Z,100.00
2022-10-17T14:52:12.374Z,100.00
2022-10-17T14:54:45.887Z,100.00
2022-10-17T14:57:26.494Z,100.00
2022-10-17T14:59:55.613Z,100.00
2022-10-17T15:02:27.030Z,100.00
2022-10-17T15:04:53.396Z,100.00
2022-10-17T15:07:20.584Z,100.00
2022-10-17T15:09:48.589Z,100.00
2022-10-17T15:12:17.246Z,100.00
2022-10-17T15:14:44.049Z,100.00
2022-10-17T15:17:15.712Z,100.00
2022-10-17T15:19:41.677Z,100.00
2022-10-17T15:22:07.522Z,100.00
2022-10-17T15:24:33.336Z,100.00
2022-10-17T15:26:59.156Z,100.00
2022-10-17T15:29:25.103Z,100.00
2022-10-17T15:31:50.892Z,100.00
2022-10-17T15:34:16.724Z,100.00
2022-10-17T15:36:51.307Z,100.00
2022-10-17T15:39:17.172Z,100.00
2022-10-17T15:41:43.416Z,100.00
2022-10-17T15:44:09.263Z,100.00
2022-10-17T15:46:35.392Z,100.00
2022-10-17T15:49:09.367Z,100.00
2022-10-17T15:51:35.408Z,100.00
2022-10-17T15:54:01.458Z,100.00
2022-10-17T15:56:35.142Z,100.00
2022-10-17T15:59:07.045Z,100.00
2022-10-17T16:01:33.617Z,100.00
2022-10-17T16:04:00.137Z,100.00
2022-10-17T16:06:26.309Z,100.00
2022-10-17T16:08:52.312Z,100.00
2022-10-17T16:11:31.938Z,100.00
2022-10-17T16:14:00.684Z,100.00
2022-10-17T16:16:28.209Z,100.00
2022-10-17T16:18:54.187Z,100.00
2022-10-17T16:21:24.521Z,100.00
2022-10-17T16:23:50.887Z,100.00
2022-10-17T16:26:16.770Z,100.00
2022-10-17T16:28:46.070Z,100.00
2022-10-17T16:31:17.793Z,100.00
2022-10-17T16:33:43.533Z,100.00
2022-10-17T16:36:09.772Z,100.00
2022-10-17T16:38:35.614Z,100.00
2022-10-17T16:41:01.479Z,100.00
2022-10-17T16:43:29.386Z,100.00
2022-10-17T16:45:55.150Z,100.00
2022-10-17T16:48:21.347Z,100.00
2022-10-17T16:50:48.205Z,100.00
2022-10-17T16:53:14.000Z,100.00
2022-10-17T16:55:39.832Z,100.00
2022-10-17T16:58:05.623Z,100.00
2022-10-17T17:00:31.946Z,100.00
2022-10-17T17:02:57.732Z,100.00
2022-10-17T17:05:23.528Z,100.00
2022-10-17T17:07:49.382Z,100.00
2022-10-17T17:10:15.318Z,100.00
2022-10-17T17:12:41.173Z,100.00
2022-10-17T17:15:07.674Z,100.00
2022-10-17T17:17:52.483Z,100.00
2022-10-17T17:20:20.114Z,100.00
2022-10-17T17:22:45.914Z,100.00
2022-10-17T17:25:27.567Z,100.00
2022-10-17T17:32:34.159Z,100.00
2022-10-17T17:35:04.597Z,100.00
2022-10-17T17:37:30.590Z,100.00
2022-10-17T17:39:56.670Z,100.00
2022-10-17T17:42:25.244Z,100.00
2022-10-17T17:44:51.574Z,100.00
2022-10-17T17:47:18.014Z,100.00
2022-10-17T17:49:43.839Z,100.00
2022-10-17T17:52:09.697Z,100.00
2022-10-17T17:54:38.561Z,100.00
2022-10-17T17:57:06.890Z,100.00
2022-10-17T17:59:32.738Z,100.00
2022-10-17T18:01:58.646Z,100.00
2022-10-17T18:04:24.506Z,100.00
2022-10-17T18:06:50.317Z,100.00
2022-10-17T18:09:16.146Z,100.00
2022-10-17T18:11:41.915Z,100.00
2022-10-17T18:14:11.657Z,100.00
2022-10-17T18:16:37.798Z,100.00
2022-10-17T18:19:07.163Z,100.00
2022-10-17T18:21:33.643Z,100.00
2022-10-17T18:23:59.542Z,100.00
2022-10-17T18:26:25.674Z,100.00
2022-10-17T18:28:51.487Z,100.00
2022-10-17T18:31:23.660Z,100.00
2022-10-17T18:33:54.407Z,100.00
2022-10-17T18:36:21.213Z,100.00
2022-10-17T18:38:48.021Z,100.00
2022-10-17T18:41:16.459Z,100.00
2022-10-17T18:43:44.310Z,100.00
2022-10-17T18:46:14.941Z,100.00
2022-10-17T18:48:43.704Z,100.00
2022-10-17T18:51:10.221Z,100.00
2022-10-17T18:53:43.370Z,100.00
2022-10-17T18:56:09.989Z,100.00
2022-10-17T18:58:37.521Z,100.00
2022-10-17T19:01:09.626Z,100.00
2022-10-17T19:03:35.578Z,100.00
2022-10-17T19:06:03.444Z,100.00
2022-10-17T19:08:29.800Z,100.00
2022-10-17T19:10:55.996Z,100.00
2022-10-17T19:13:21.867Z,100.00
2022-10-17T19:15:47.809Z,100.00
2022-10-17T19:18:13.603Z,100.00
2022-10-17T19:20:39.412Z,100.00
2022-10-17T19:23:05.171Z,100.00
2022-10-17T19:25:33.064Z,100.00
2022-10-17T19:27:58.924Z,100.00
2022-10-17T19:30:24.768Z,100.00
2022-10-17T19:32:50.664Z,100.00
2022-10-17T19:35:16.501Z,100.00
2022-10-17T19:37:42.427Z,100.00
2022-10-17T19:40:08.772Z,100.00
2022-10-17T19:42:34.659Z,100.00
2022-10-17T19:45:01.735Z,100.00
2022-10-17T19:47:27.983Z,100.00
2022-10-17T19:49:53.782Z,100.00
2022-10-17T19:52:19.726Z,100.00
2022-10-17T19:54:45.582Z,100.00
2022-10-17T19:57:11.789Z,100.00
2022-10-17T19:59:37.668Z,100.00
2022-10-17T20:02:03.858Z,100.00
2022-10-17T20:04:30.084Z,100.00
2022-10-17T20:06:59.056Z,100.00
2022-10-17T20:09:26.137Z,100.00
2022-10-17T20:11:51.953Z,100.00
2022-10-17T20:14:17.798Z,100.00
2022-10-17T20:16:44.112Z,100.00
2022-10-17T20:19:12.295Z,100.00
2022-10-17T20:21:38.982Z,100.00
2022-10-17T20:24:07.466Z,100.00
2022-10-17T20:26:38.167Z,100.00
2022-10-17T20:29:13.107Z,100.00
2022-10-17T20:31:40.610Z,100.00
2022-10-17T20:34:06.627Z,100.00
2022-10-17T20:36:35.913Z,100.00
2022-10-17T20:39:02.122Z,100.00
2022-10-17T20:41:27.926Z,100.00
2022-10-17T20:43:54.895Z,100.00
2022-10-17T20:46:35.911Z,100.00
2022-10-17T20:49:07.074Z,100.00
2022-10-17T20:51:33.959Z,100.00
2022-10-17T20:53:59.979Z,100.00
2022-10-17T20:56:28.253Z,100.00
2022-10-17T20:58:56.451Z,100.00
2022-10-17T21:01:22.968Z,100.00
2022-10-17T21:03:49.130Z,100.00
2022-10-17T21:06:16.026Z,100.00
2022-10-17T21:09:14.666Z,100.00
2022-10-17T21:14:55.435Z,100.00
2022-10-17T21:17:49.350Z,100.00
2022-10-17T21:28:09.544Z,100.00
2022-10-17T21:30:35.335Z,100.00
2022-10-17T21:33:01.108Z,100.00
2022-10-17T21:35:26.847Z,100.00
2022-10-17T21:37:52.601Z,100.00
2022-10-17T21:40:23.567Z,100.00
2022-10-17T21:42:49.328Z,100.00
2022-10-17T21:45:24.860Z,100.00
2022-10-17T21:48:12.307Z,100.00
2022-10-17T21:50:38.629Z,100.00
2022-10-17T21:53:04.428Z,100.00
2022-10-17T21:55:30.211Z,100.00
2022-10-17T21:57:56.000Z,100.00
2022-10-17T22:00:21.795Z,100.00
2022-10-17T22:02:47.645Z,100.00
2022-10-17T22:05:13.502Z,100.00
2022-10-17T22:07:39.396Z,100.00
2022-10-17T22:10:05.486Z,100.00
2022-10-17T22:12:31.587Z,100.00
2022-10-17T22:14:57.560Z,100.00
2022-10-17T22:17:23.291Z,100.00
2022-10-17T22:19:49.075Z,100.00
2022-10-17T22:22:14.821Z,100.00
2022-10-17T22:24:40.632Z,100.00
2022-10-17T22:27:08.919Z,100.00
2022-10-17T22:29:34.729Z,100.00
2022-10-17T22:32:00.515Z,100.00
2022-10-17T22:34:26.330Z,100.00
2022-10-17T22:36:52.485Z,100.00
2022-10-17T22:39:18.354Z,100.00
2022-10-17T22:41:44.117Z,100.00
2022-10-17T22:44:09.927Z,100.00
2022-10-17T22:46:35.828Z,100.00
2022-10-17T22:49:01.904Z,100.00
2022-10-17T22:51:27.704Z,100.00
2022-10-17T22:53:53.679Z,100.00
2022-10-17T22:56:20.833Z,100.00
2022-10-17T22:58:47.278Z,100.00
2022-10-17T23:01:16.633Z,100.00
2022-10-17T23:03:42.856Z,100.00
2022-10-17T23:06:09.266Z,100.00
2022-10-17T23:08:35.570Z,100.00
2022-10-17T23:11:01.372Z,100.00
2022-10-17T23:13:27.572Z,100.00
2022-10-17T23:15:55.943Z,100.00
2022-10-17T23:18:23.065Z,100.00
2022-10-17T23:20:49.636Z,100.00
2022-10-17T23:23:15.811Z,100.00
2022-10-17T23:25:41.578Z,100.00
2022-10-17T23:28:08.005Z,100.00
2022-10-17T23:30:33.859Z,100.00
2022-10-17T23:32:59.874Z,100.00
2022-10-17T23:35:25.764Z,100.00
2022-10-17T23:37:51.646Z,100.00
2022-10-17T23:40:17.600Z,100.00
2022-10-17T23:42:44.309Z,100.00
2022-10-17T23:45:10.434Z,100.00
2022-10-17T23:47:36.580Z,100.00
2022-10-17T23:50:03.515Z,100.00
2022-10-17T23:52:29.270Z,100.00
2022-10-17T23:54:55.037Z,100.00
2022-10-17T23:57:20.999Z,100.00
2022-10-17T23:59:46.854Z,100.00
